sensor_id;sensor_type;location;lat;lon;timestamp;pressure;altitude;pressure_sealevel;temperature;humidity
7768;BME280;3928;42.626;23.382;2023-03-13T00:02:26;94375.69;;;6.58;42.46
7768;BME280;3928;42.626;23.382;2023-03-13T00:04:53;94385.06;;;6.45;42.82
7768;BME280;3928;42.626;23.382;2023-03-13T00:07:19;94382.50;;;6.42;41.97
7768;BME280;3928;42.626;23.382;2023-03-13T00:09:46;94381.66;;;6.34;43.23
7768;BME280;3928;42.626;23.382;2023-03-13T00:12:13;94381.63;;;6.37;43.07
7768;BME280;3928;42.626;23.382;2023-03-13T00:14:41;94379.13;;;6.40;43.00
7768;BME280;3928;42.626;23.382;2023-03-13T00:17:08;94383.34;;;6.43;42.68
7768;BME280;3928;42.626;23.382;2023-03-13T00:19:35;94381.66;;;6.42;43.29
7768;BME280;3928;42.626;23.382;2023-03-13T00:22:01;94380.81;;;6.40;43.37
7768;BME280;3928;42.626;23.382;2023-03-13T00:24:28;94388.44;;;6.38;43.71
7768;BME280;3928;42.626;23.382;2023-03-13T00:26:55;94368.91;;;6.28;43.59
7768;BME280;3928;42.626;23.382;2023-03-13T00:29:27;94386.75;;;6.30;43.79
7768;BME280;3928;42.626;23.382;2023-03-13T00:31:55;94391.81;;;6.22;43.27
7768;BME280;3928;42.626;23.382;2023-03-13T00:34:22;94396.06;;;6.15;43.63
7768;BME280;3928;42.626;23.382;2023-03-13T00:36:50;94393.53;;;6.19;43.25
7768;BME280;3928;42.626;23.382;2023-03-13T00:39:17;94389.28;;;6.21;44.22
7768;BME280;3928;42.626;23.382;2023-03-13T00:41:44;94391.84;;;6.34;44.03
7768;BME280;3928;42.626;23.382;2023-03-13T00:44:11;94397.81;;;6.41;44.67
7768;BME280;3928;42.626;23.382;2023-03-13T00:46:38;94402.88;;;6.47;44.61
7768;BME280;3928;42.626;23.382;2023-03-13T00:49:06;94395.25;;;6.53;45.39
7768;BME280;3928;42.626;23.382;2023-03-13T00:51:33;94390.97;;;6.63;45.02
7768;BME280;3928;42.626;23.382;2023-03-13T00:54:00;94386.75;;;6.60;45.54
7768;BME280;3928;42.626;23.382;2023-03-13T00:56:27;94385.91;;;6.57;43.53
7768;BME280;3928;42.626;23.382;2023-03-13T00:58:54;94391.84;;;6.53;43.30
7768;BME280;3928;42.626;23.382;2023-03-13T01:01:22;94391.84;;;6.50;43.26
7768;BME280;3928;42.626;23.382;2023-03-13T01:03:51;94379.97;;;6.52;43.15
7768;BME280;3928;42.626;23.382;2023-03-13T01:06:22;94391.84;;;6.62;42.88
7768;BME280;3928;42.626;23.382;2023-03-13T01:08:49;94397.81;;;6.56;42.37
7768;BME280;3928;42.626;23.382;2023-03-13T01:11:18;94383.34;;;6.60;42.75
7768;BME280;3928;42.626;23.382;2023-03-13T01:13:46;94372.31;;;6.58;42.81
7768;BME280;3928;42.626;23.382;2023-03-13T01:16:15;94395.25;;;6.76;43.12
7768;BME280;3928;42.626;23.382;2023-03-13T01:18:44;94391.00;;;6.75;43.33
7768;BME280;3928;42.626;23.382;2023-03-13T01:21:11;94396.09;;;6.69;43.40
7768;BME280;3928;42.626;23.382;2023-03-13T01:23:40;94390.16;;;6.64;43.05
7768;BME280;3928;42.626;23.382;2023-03-13T01:26:08;94391.00;;;6.64;42.74
7768;BME280;3928;42.626;23.382;2023-03-13T01:28:35;94391.00;;;6.61;42.99
7768;BME280;3928;42.626;23.382;2023-03-13T01:31:10;94396.09;;;6.54;43.21
7768;BME280;3928;42.626;23.382;2023-03-13T01:33:37;94397.81;;;6.41;43.17
7768;BME280;3928;42.626;23.382;2023-03-13T01:36:04;94407.16;;;6.40;43.15
7768;BME280;3928;42.626;23.382;2023-03-13T01:38:31;94408.84;;;6.32;43.70
7768;BME280;3928;42.626;23.382;2023-03-13T01:40:59;94403.69;;;5.96;43.62
7768;BME280;3928;42.626;23.382;2023-03-13T01:43:27;94304.16;;;5.22;43.28
7768;BME280;3928;42.626;23.382;2023-03-13T01:46:01;94407.00;;;5.85;43.36
7768;BME280;3928;42.626;23.382;2023-03-13T01:48:38;94416.34;;;5.83;43.59
7768;BME280;3928;42.626;23.382;2023-03-13T01:51:09;94414.56;;;5.64;44.02
7768;BME280;3928;42.626;23.382;2023-03-13T01:53:41;94412.03;;;5.58;44.62
7768;BME280;3928;42.626;23.382;2023-03-13T01:56:17;94417.06;;;5.55;45.69
7768;BME280;3928;42.626;23.382;2023-03-13T01:58:47;94380.53;;;5.41;45.23
7768;BME280;3928;42.626;23.382;2023-03-13T02:01:15;94413.72;;;5.62;45.25
7768;BME280;3928;42.626;23.382;2023-03-13T02:03:43;94403.59;;;5.77;45.02
7768;BME280;3928;42.626;23.382;2023-03-13T02:06:10;94410.41;;;5.84;45.55
7768;BME280;3928;42.626;23.382;2023-03-13T02:08:40;94411.25;;;5.80;45.31
7768;BME280;3928;42.626;23.382;2023-03-13T02:11:16;94365.28;;;5.38;45.37
7768;BME280;3928;42.626;23.382;2023-03-13T02:13:45;94370.34;;;5.36;45.29
7768;BME280;3928;42.626;23.382;2023-03-13T02:16:13;94403.50;;;5.56;45.52
7768;BME280;3928;42.626;23.382;2023-03-13T02:18:40;94414.56;;;5.67;45.75
7768;BME280;3928;42.626;23.382;2023-03-13T02:21:12;94362.66;;;5.25;46.05
7768;BME280;3928;42.626;23.382;2023-03-13T02:23:49;94424.84;;;5.82;45.82
7768;BME280;3928;42.626;23.382;2023-03-13T02:26:20;94426.53;;;5.86;46.06
7768;BME280;3928;42.626;23.382;2023-03-13T02:28:47;94429.09;;;5.85;45.29
7768;BME280;3928;42.626;23.382;2023-03-13T02:31:14;94431.63;;;5.82;44.56
7768;BME280;3928;42.626;23.382;2023-03-13T02:33:41;94434.13;;;5.74;45.12
7768;BME280;3928;42.626;23.382;2023-03-13T02:36:10;94436.63;;;5.65;45.49
7768;BME280;3928;42.626;23.382;2023-03-13T02:38:44;94441.66;;;5.45;45.91
7768;BME280;3928;42.626;23.382;2023-03-13T02:41:14;94442.50;;;5.46;46.12
7768;BME280;3928;42.626;23.382;2023-03-13T02:43:43;94450.09;;;5.44;45.93
7768;BME280;3928;42.626;23.382;2023-03-13T02:46:11;94453.53;;;5.49;45.87
7768;BME280;3928;42.626;23.382;2023-03-13T02:48:41;94461.13;;;5.42;46.16
7768;BME280;3928;42.626;23.382;2023-03-13T02:51:13;94464.50;;;5.38;46.79
7768;BME280;3928;42.626;23.382;2023-03-13T02:53:44;94471.22;;;5.25;47.58
7768;BME280;3928;42.626;23.382;2023-03-13T02:56:13;94469.53;;;5.25;48.09
7768;BME280;3928;42.626;23.382;2023-03-13T02:58:43;94475.50;;;5.32;47.75
7768;BME280;3928;42.626;23.382;2023-03-13T03:01:10;94472.06;;;5.27;47.62
7768;BME280;3928;42.626;23.382;2023-03-13T03:03:36;94466.09;;;5.19;47.99
7768;BME280;3928;42.626;23.382;2023-03-13T03:06:05;94474.63;;;5.25;47.85
7768;BME280;3928;42.626;23.382;2023-03-13T03:08:32;94472.91;;;5.24;48.01
7768;BME280;3928;42.626;23.382;2023-03-13T03:10:59;94454.28;;;5.32;48.00
7768;BME280;3928;42.626;23.382;2023-03-13T03:13:27;94464.56;;;5.47;48.43
7768;BME280;3928;42.626;23.382;2023-03-13T03:15:55;94471.34;;;5.48;48.52
7768;BME280;3928;42.626;23.382;2023-03-13T03:18:22;94469.59;;;5.41;47.69
7768;BME280;3928;42.626;23.382;2023-03-13T03:20:48;94471.34;;;5.45;46.26
7768;BME280;3928;42.626;23.382;2023-03-13T03:23:15;94477.28;;;5.45;46.52
7768;BME280;3928;42.626;23.382;2023-03-13T03:25:42;94492.56;;;5.50;45.84
7768;BME280;3928;42.626;23.382;2023-03-13T03:28:09;94491.72;;;5.51;46.66
7768;BME280;3928;42.626;23.382;2023-03-13T03:30:35;94502.75;;;5.48;45.96
7768;BME280;3928;42.626;23.382;2023-03-13T03:33:04;94506.16;;;5.50;46.35
7768;BME280;3928;42.626;23.382;2023-03-13T03:35:30;94508.72;;;5.55;47.32
7768;BME280;3928;42.626;23.382;2023-03-13T03:37:58;94508.75;;;5.58;47.04
7768;BME280;3928;42.626;23.382;2023-03-13T03:40:25;94507.84;;;5.50;46.75
7768;BME280;3928;42.626;23.382;2023-03-13T03:42:52;94516.31;;;5.47;46.31
7768;BME280;3928;42.626;23.382;2023-03-13T03:45:19;94525.66;;;5.48;47.33
7768;BME280;3928;42.626;23.382;2023-03-13T03:47:46;94518.00;;;5.45;46.79
7768;BME280;3928;42.626;23.382;2023-03-13T03:50:14;94524.66;;;5.29;46.43
7768;BME280;3928;42.626;23.382;2023-03-13T03:52:41;94514.22;;;4.93;46.27
7768;BME280;3928;42.626;23.382;2023-03-13T03:55:08;94540.59;;;5.04;46.57
7768;BME280;3928;42.626;23.382;2023-03-13T03:57:35;94546.63;;;5.14;47.24
7768;BME280;3928;42.626;23.382;2023-03-13T04:00:02;94552.59;;;5.20;46.81
7768;BME280;3928;42.626;23.382;2023-03-13T04:02:32;94551.81;;;5.29;47.07
7768;BME280;3928;42.626;23.382;2023-03-13T04:04:58;94551.03;;;5.36;46.71
7768;BME280;3928;42.626;23.382;2023-03-13T04:07:27;94551.03;;;5.38;46.98
7768;BME280;3928;42.626;23.382;2023-03-13T04:09:53;94553.59;;;5.42;47.31
7768;BME280;3928;42.626;23.382;2023-03-13T04:12:20;94562.97;;;5.48;46.06
7768;BME280;3928;42.626;23.382;2023-03-13T04:14:47;94561.25;;;5.44;46.89
7768;BME280;3928;42.626;23.382;2023-03-13T04:17:14;94565.53;;;5.46;47.73
7768;BME280;3928;42.626;23.382;2023-03-13T04:19:41;94579.09;;;5.45;46.44
7768;BME280;3928;42.626;23.382;2023-03-13T04:22:08;94575.63;;;5.36;47.59
7768;BME280;3928;42.626;23.382;2023-03-13T04:24:36;94575.47;;;5.19;48.31
7768;BME280;3928;42.626;23.382;2023-03-13T04:27:03;94576.19;;;5.01;48.98
7768;BME280;3928;42.626;23.382;2023-03-13T04:29:31;94582.00;;;4.86;48.69
7768;BME280;3928;42.626;23.382;2023-03-13T04:31:58;94584.44;;;4.79;50.00
7768;BME280;3928;42.626;23.382;2023-03-13T04:34:25;94585.28;;;4.78;49.77
7768;BME280;3928;42.626;23.382;2023-03-13T04:36:52;94592.78;;;4.64;50.98
7768;BME280;3928;42.626;23.382;2023-03-13T04:39:18;94593.41;;;4.46;51.42
7768;BME280;3928;42.626;23.382;2023-03-13T04:41:51;94601.91;;;4.48;51.34
7768;BME280;3928;42.626;23.382;2023-03-13T04:44:17;94613.84;;;4.52;51.45
7768;BME280;3928;42.626;23.382;2023-03-13T04:46:44;94604.53;;;4.54;51.63
7768;BME280;3928;42.626;23.382;2023-03-13T04:49:11;94614.03;;;4.70;51.13
7768;BME280;3928;42.626;23.382;2023-03-13T04:51:39;94617.50;;;4.80;51.75
7768;BME280;3928;42.626;23.382;2023-03-13T04:54:05;94627.78;;;4.89;51.54
7768;BME280;3928;42.626;23.382;2023-03-13T04:56:32;94620.19;;;4.94;51.31
7768;BME280;3928;42.626;23.382;2023-03-13T04:59:00;94628.75;;;4.99;50.66
7768;BME280;3928;42.626;23.382;2023-03-13T05:01:27;94623.66;;;5.02;50.68
7768;BME280;3928;42.626;23.382;2023-03-13T05:03:54;94621.16;;;5.07;49.51
7768;BME280;3928;42.626;23.382;2023-03-13T05:06:21;94629.69;;;5.10;49.47
7768;BME280;3928;42.626;23.382;2023-03-13T05:08:48;94630.56;;;5.15;49.16
7768;BME280;3928;42.626;23.382;2023-03-13T05:11:14;94628.97;;;5.25;48.80
7768;BME280;3928;42.626;23.382;2023-03-13T05:13:41;94633.22;;;5.29;48.89
7768;BME280;3928;42.626;23.382;2023-03-13T05:16:09;94632.44;;;5.35;48.58
7768;BME280;3928;42.626;23.382;2023-03-13T05:18:36;94629.91;;;5.36;49.33
7768;BME280;3928;42.626;23.382;2023-03-13T05:21:04;94636.78;;;5.48;48.74
7768;BME280;3928;42.626;23.382;2023-03-13T05:23:30;94639.41;;;5.57;47.82
7768;BME280;3928;42.626;23.382;2023-03-13T05:25:57;94646.22;;;5.61;48.38
7768;BME280;3928;42.626;23.382;2023-03-13T05:28:24;94650.50;;;5.68;48.09
7768;BME280;3928;42.626;23.382;2023-03-13T05:30:51;94642.94;;;5.76;57.35
7768;BME280;3928;42.626;23.382;2023-03-13T05:33:19;94648.22;;;6.03;49.49
7768;BME280;3928;42.626;23.382;2023-03-13T05:35:46;94638.03;;;6.02;47.38
7768;BME280;3928;42.626;23.382;2023-03-13T05:38:14;94658.53;;;6.20;46.57
7768;BME280;3928;42.626;23.382;2023-03-13T05:40:41;94656.91;;;6.28;46.39
7768;BME280;3928;42.626;23.382;2023-03-13T05:43:07;94660.31;;;6.36;47.15
7768;BME280;3928;42.626;23.382;2023-03-13T05:45:34;94666.31;;;6.43;46.90
7768;BME280;3928;42.626;23.382;2023-03-13T05:48:01;94662.06;;;6.47;46.27
7768;BME280;3928;42.626;23.382;2023-03-13T05:50:29;94660.41;;;6.55;46.24
7768;BME280;3928;42.626;23.382;2023-03-13T05:52:56;94662.16;;;6.63;45.88
7768;BME280;3928;42.626;23.382;2023-03-13T05:55:23;94657.91;;;6.71;45.40
7768;BME280;3928;42.626;23.382;2023-03-13T05:57:49;94655.41;;;6.76;45.53
7768;BME280;3928;42.626;23.382;2023-03-13T06:00:17;94669.06;;;6.93;48.04
7768;BME280;3928;42.626;23.382;2023-03-13T06:02:44;94659.75;;;7.18;66.32
7768;BME280;3928;42.626;23.382;2023-03-13T06:05:11;94681.09;;;7.89;67.48
7768;BME280;3928;42.626;23.382;2023-03-13T06:07:39;94672.47;;;8.51;64.48
7768;BME280;3928;42.626;23.382;2023-03-13T06:10:06;94680.75;;;9.17;55.18
7768;BME280;3928;42.626;23.382;2023-03-13T06:12:33;94670.94;;;9.80;50.51
7768;BME280;3928;42.626;23.382;2023-03-13T06:15:00;94669.75;;;10.22;41.59
7768;BME280;3928;42.626;23.382;2023-03-13T06:17:27;94682.50;;;10.29;39.55
7768;BME280;3928;42.626;23.382;2023-03-13T06:19:54;94684.16;;;10.36;39.16
7768;BME280;3928;42.626;23.382;2023-03-13T06:22:20;94675.66;;;10.29;38.79
7768;BME280;3928;42.626;23.382;2023-03-13T06:24:49;94685.47;;;9.78;38.06
7768;BME280;3928;42.626;23.382;2023-03-13T06:27:16;94688.34;;;9.31;38.76
7768;BME280;3928;42.626;23.382;2023-03-13T06:29:42;94686.81;;;8.99;38.65
7768;BME280;3928;42.626;23.382;2023-03-13T06:32:09;94678.38;;;8.79;38.88
7768;BME280;3928;42.626;23.382;2023-03-13T06:34:36;94690.41;;;8.27;40.97
7768;BME280;3928;42.626;23.382;2023-03-13T06:37:03;94694.69;;;8.31;40.89
7768;BME280;3928;42.626;23.382;2023-03-13T06:39:30;94696.38;;;8.50;40.83
7768;BME280;3928;42.626;23.382;2023-03-13T06:41:58;94680.94;;;8.76;40.89
7768;BME280;3928;42.626;23.382;2023-03-13T06:44:25;94670.69;;;8.81;41.12
7768;BME280;3928;42.626;23.382;2023-03-13T06:46:51;94667.28;;;8.80;41.17
7768;BME280;3928;42.626;23.382;2023-03-13T06:49:18;94658.63;;;9.04;39.42
7768;BME280;3928;42.626;23.382;2023-03-13T06:51:45;94662.06;;;9.04;39.74
7768;BME280;3928;42.626;23.382;2023-03-13T06:54:12;94659.50;;;8.97;39.66
7768;BME280;3928;42.626;23.382;2023-03-13T06:56:39;94659.50;;;9.03;39.38
7768;BME280;3928;42.626;23.382;2023-03-13T06:59:08;94661.13;;;9.16;40.05
7768;BME280;3928;42.626;23.382;2023-03-13T07:01:34;94669.50;;;9.41;39.31
7768;BME280;3928;42.626;23.382;2023-03-13T07:04:01;94661.69;;;9.64;39.39
7768;BME280;3928;42.626;23.382;2023-03-13T07:06:28;94657.16;;;9.93;38.56
7768;BME280;3928;42.626;23.382;2023-03-13T07:08:55;94659.59;;;10.06;37.89
7768;BME280;3928;42.626;23.382;2023-03-13T07:11:22;94657.78;;;10.20;37.88
7768;BME280;3928;42.626;23.382;2023-03-13T07:13:53;94661.13;;;10.33;36.82
7768;BME280;3928;42.626;23.382;2023-03-13T07:16:22;94654.19;;;10.39;37.55
7768;BME280;3928;42.626;23.382;2023-03-13T07:18:49;94651.66;;;10.36;37.21
7768;BME280;3928;42.626;23.382;2023-03-13T07:21:16;94656.78;;;10.38;36.43
7768;BME280;3928;42.626;23.382;2023-03-13T07:23:43;94667.63;;;10.63;37.32
7768;BME280;3928;42.626;23.382;2023-03-13T07:26:11;94661.28;;;10.94;36.89
7768;BME280;3928;42.626;23.382;2023-03-13T07:28:39;94634.63;;;11.03;35.82
7768;BME280;3928;42.626;23.382;2023-03-13T07:31:07;94654.78;;;11.32;35.38
7768;BME280;3928;42.626;23.382;2023-03-13T07:33:35;94656.25;;;11.48;35.27
7768;BME280;3928;42.626;23.382;2023-03-13T07:36:03;94649.31;;;11.55;34.88
7768;BME280;3928;42.626;23.382;2023-03-13T07:38:30;94644.75;;;11.74;34.69
7768;BME280;3928;42.626;23.382;2023-03-13T07:40:57;94659.00;;;11.96;34.38
7768;BME280;3928;42.626;23.382;2023-03-13T07:43:24;94655.22;;;12.15;34.25
7768;BME280;3928;42.626;23.382;2023-03-13T07:45:53;94661.06;;;12.25;44.03
7768;BME280;3928;42.626;23.382;2023-03-13T07:48:21;94646.81;;;12.53;43.17
7768;BME280;3928;42.626;23.382;2023-03-13T07:50:49;94650.09;;;13.05;35.34
7768;BME280;3928;42.626;23.382;2023-03-13T07:53:16;94636.47;;;13.41;41.11
7768;BME280;3928;42.626;23.382;2023-03-13T07:55:57;94640.31;;;13.98;34.49
7768;BME280;3928;42.626;23.382;2023-03-13T07:58:28;94655.84;;;14.29;33.97
7768;BME280;3928;42.626;23.382;2023-03-13T08:00:55;94641.91;;;14.36;33.07
7768;BME280;3928;42.626;23.382;2023-03-13T08:03:23;94641.72;;;14.45;32.16
7768;BME280;3928;42.626;23.382;2023-03-13T08:05:58;94645.75;;;14.21;32.92
7768;BME280;3928;42.626;23.382;2023-03-13T08:08:25;94645.16;;;14.09;32.09
7768;BME280;3928;42.626;23.382;2023-03-13T08:10:52;94630.56;;;14.09;31.73
7768;BME280;3928;42.626;23.382;2023-03-13T08:13:36;94637.16;;;14.21;32.04
7768;BME280;3928;42.626;23.382;2023-03-13T08:16:05;94626.81;;;14.21;32.21
7768;BME280;3928;42.626;23.382;2023-03-13T08:18:33;94630.84;;;14.31;31.83
7768;BME280;3928;42.626;23.382;2023-03-13T08:21:03;94629.44;;;14.53;31.57
7768;BME280;3928;42.626;23.382;2023-03-13T08:23:31;94626.25;;;14.42;31.85
7768;BME280;3928;42.626;23.382;2023-03-13T08:26:01;94632.56;;;14.30;31.43
7768;BME280;3928;42.626;23.382;2023-03-13T08:28:28;94637.34;;;14.47;31.59
7768;BME280;3928;42.626;23.382;2023-03-13T08:30:55;94635.94;;;14.67;31.50
7768;BME280;3928;42.626;23.382;2023-03-13T08:33:22;94629.75;;;14.74;30.73
7768;BME280;3928;42.626;23.382;2023-03-13T08:35:48;94634.47;;;14.89;31.02
7768;BME280;3928;42.626;23.382;2023-03-13T08:38:17;94643.56;;;15.02;30.89
7768;BME280;3928;42.626;23.382;2023-03-13T08:40:44;94645.94;;;15.10;30.81
7768;BME280;3928;42.626;23.382;2023-03-13T08:43:10;94644.81;;;15.20;30.31
7768;BME280;3928;42.626;23.382;2023-03-13T08:45:37;94648.44;;;15.13;30.43
7768;BME280;3928;42.626;23.382;2023-03-13T08:48:04;94653.13;;;15.00;31.19
7768;BME280;3928;42.626;23.382;2023-03-13T08:50:31;94647.00;;;15.04;31.04
7768;BME280;3928;42.626;23.382;2023-03-13T08:52:57;94626.03;;;15.13;30.71
7768;BME280;3928;42.626;23.382;2023-03-13T08:55:26;94644.88;;;15.46;30.49
7768;BME280;3928;42.626;23.382;2023-03-13T08:57:52;94636.72;;;15.60;30.62
7768;BME280;3928;42.626;23.382;2023-03-13T09:00:19;94634.06;;;15.63;30.17
7768;BME280;3928;42.626;23.382;2023-03-13T09:02:46;94640.59;;;15.75;30.22
7768;BME280;3928;42.626;23.382;2023-03-13T09:05:13;94640.38;;;15.81;29.87
7768;BME280;3928;42.626;23.382;2023-03-13T09:07:40;94635.56;;;15.97;29.71
7768;BME280;3928;42.626;23.382;2023-03-13T09:10:08;94634.75;;;16.21;28.94
7768;BME280;3928;42.626;23.382;2023-03-13T09:12:36;94589.59;;;15.78;28.84
7768;BME280;3928;42.626;23.382;2023-03-13T09:15:03;94628.94;;;16.15;28.52
7768;BME280;3928;42.626;23.382;2023-03-13T09:17:30;94633.66;;;16.28;29.07
7768;BME280;3928;42.626;23.382;2023-03-13T09:19:57;94629.22;;;16.57;28.76
7768;BME280;3928;42.626;23.382;2023-03-13T09:22:24;94626.16;;;16.72;28.66
7768;BME280;3928;42.626;23.382;2023-03-13T09:24:50;94623.06;;;16.86;28.10
7768;BME280;3928;42.626;23.382;2023-03-13T09:27:17;94616.47;;;17.01;27.81
7768;BME280;3928;42.626;23.382;2023-03-13T09:29:46;94618.16;;;17.02;27.86
7768;BME280;3928;42.626;23.382;2023-03-13T09:32:14;94615.41;;;17.30;28.06
7768;BME280;3928;42.626;23.382;2023-03-13T09:34:41;94620.44;;;17.56;27.33
7768;BME280;3928;42.626;23.382;2023-03-13T09:37:08;94619.75;;;17.74;27.32
7768;BME280;3928;42.626;23.382;2023-03-13T09:39:35;94625.94;;;17.25;26.82
7768;BME280;3928;42.626;23.382;2023-03-13T09:42:07;94622.47;;;17.48;26.84
7768;BME280;3928;42.626;23.382;2023-03-13T09:44:40;94620.94;;;17.66;27.11
7768;BME280;3928;42.626;23.382;2023-03-13T09:47:14;94630.50;;;17.87;26.64
7768;BME280;3928;42.626;23.382;2023-03-13T09:49:47;94626.41;;;17.81;27.85
7768;BME280;3928;42.626;23.382;2023-03-13T09:52:17;94628.09;;;18.04;27.40
7768;BME280;3928;42.626;23.382;2023-03-13T09:54:47;94626.44;;;18.44;26.97
7768;BME280;3928;42.626;23.382;2023-03-13T09:57:19;94612.50;;;18.67;26.38
7768;BME280;3928;42.626;23.382;2023-03-13T09:59:51;94622.84;;;19.08;25.37
7768;BME280;3928;42.626;23.382;2023-03-13T10:02:29;94616.69;;;19.48;25.53
7768;BME280;3928;42.626;23.382;2023-03-13T10:05:05;94616.97;;;19.79;24.89
7768;BME280;3928;42.626;23.382;2023-03-13T10:07:35;94610.19;;;19.75;24.67
7768;BME280;3928;42.626;23.382;2023-03-13T10:10:05;94607.66;;;19.93;24.50
7768;BME280;3928;42.626;23.382;2023-03-13T10:12:37;94609.66;;;20.22;24.07
7768;BME280;3928;42.626;23.382;2023-03-13T10:15:20;94603.13;;;20.50;22.98
7768;BME280;3928;42.626;23.382;2023-03-13T10:17:54;94591.84;;;20.66;23.60
7768;BME280;3928;42.626;23.382;2023-03-13T10:20:23;94591.69;;;20.52;23.34
7768;BME280;3928;42.626;23.382;2023-03-13T10:22:55;94591.28;;;20.60;23.62
7768;BME280;3928;42.626;23.382;2023-03-13T10:25:27;94587.00;;;20.76;23.39
7768;BME280;3928;42.626;23.382;2023-03-13T10:27:55;94576.00;;;20.87;22.95
7768;BME280;3928;42.626;23.382;2023-03-13T10:30:24;94570.50;;;21.09;22.81
7768;BME280;3928;42.626;23.382;2023-03-13T10:32:58;94558.53;;;21.05;23.25
7768;BME280;3928;42.626;23.382;2023-03-13T10:35:31;94551.34;;;21.25;23.07
7768;BME280;3928;42.626;23.382;2023-03-13T10:38:02;94559.59;;;21.49;22.43
7768;BME280;3928;42.626;23.382;2023-03-13T10:40:30;94557.00;;;21.34;22.42
7768;BME280;3928;42.626;23.382;2023-03-13T10:43:03;94554.19;;;21.21;23.02
7768;BME280;3928;42.626;23.382;2023-03-13T10:45:32;94554.88;;;21.40;22.68
7768;BME280;3928;42.626;23.382;2023-03-13T10:48:03;94546.88;;;21.75;22.15
7768;BME280;3928;42.626;23.382;2023-03-13T10:50:41;94536.44;;;22.05;21.86
7768;BME280;3928;42.626;23.382;2023-03-13T10:53:25;94538.28;;;22.18;21.80
7768;BME280;3928;42.626;23.382;2023-03-13T10:56:02;94516.88;;;22.12;21.88
7768;BME280;3928;42.626;23.382;2023-03-13T10:58:33;94529.63;;;22.32;21.80
7768;BME280;3928;42.626;23.382;2023-03-13T11:01:25;94531.13;;;22.36;21.52
7768;BME280;3928;42.626;23.382;2023-03-13T11:03:55;94526.22;;;22.46;21.94
7768;BME280;3928;42.626;23.382;2023-03-13T11:06:27;94520.56;;;22.24;20.99
7768;BME280;3928;42.626;23.382;2023-03-13T11:09:10;94523.13;;;22.09;21.45
7768;BME280;3928;42.626;23.382;2023-03-13T11:11:46;94497.50;;;21.70;21.50
7768;BME280;3928;42.626;23.382;2023-03-13T11:14:16;94508.50;;;21.91;21.92
7768;BME280;3928;42.626;23.382;2023-03-13T11:16:48;94491.97;;;22.06;21.58
7768;BME280;3928;42.626;23.382;2023-03-13T11:19:41;94496.66;;;22.15;22.45
7768;BME280;3928;42.626;23.382;2023-03-13T11:22:20;94497.63;;;22.29;21.95
7768;BME280;3928;42.626;23.382;2023-03-13T11:24:59;94496.91;;;22.55;21.44
7768;BME280;3928;42.626;23.382;2023-03-13T11:27:31;94478.47;;;22.71;21.53
7768;BME280;3928;42.626;23.382;2023-03-13T11:30:07;94498.97;;;22.93;20.95
7768;BME280;3928;42.626;23.382;2023-03-13T11:32:42;94492.78;;;23.08;21.32
7768;BME280;3928;42.626;23.382;2023-03-13T11:35:30;94467.56;;;22.93;20.88
7768;BME280;3928;42.626;23.382;2023-03-13T11:38:04;94489.34;;;22.93;21.35
7768;BME280;3928;42.626;23.382;2023-03-13T11:40:36;94488.50;;;22.93;21.65
7768;BME280;3928;42.626;23.382;2023-03-13T11:43:21;94473.56;;;23.09;20.92
7768;BME280;3928;42.626;23.382;2023-03-13T11:46:01;94469.97;;;23.24;20.45
7768;BME280;3928;42.626;23.382;2023-03-13T11:48:55;94465.69;;;22.95;21.06
7768;BME280;3928;42.626;23.382;2023-03-13T11:51:31;94459.34;;;22.56;21.38
7768;BME280;3928;42.626;23.382;2023-03-13T11:54:16;94450.22;;;21.75;23.49
7768;BME280;3928;42.626;23.382;2023-03-13T11:56:53;94424.19;;;21.43;22.16
7768;BME280;3928;42.626;23.382;2023-03-13T11:59:31;94443.94;;;21.16;22.37
7768;BME280;3928;42.626;23.382;2023-03-13T12:02:08;94442.88;;;21.20;23.32
7768;BME280;3928;42.626;23.382;2023-03-13T12:04:42;94438.97;;;20.95;22.79
7768;BME280;3928;42.626;23.382;2023-03-13T12:07:19;94431.91;;;21.13;22.89
7768;BME280;3928;42.626;23.382;2023-03-13T12:09:50;94414.75;;;21.09;22.15
7768;BME280;3928;42.626;23.382;2023-03-13T12:12:27;94422.50;;;21.26;22.97
7768;BME280;3928;42.626;23.382;2023-03-13T12:14:58;94421.34;;;21.92;22.44
7768;BME280;3928;42.626;23.382;2023-03-13T12:17:31;94415.81;;;22.55;21.79
7768;BME280;3928;42.626;23.382;2023-03-13T12:20:04;94421.47;;;23.31;21.14
7768;BME280;3928;42.626;23.382;2023-03-13T12:22:41;94410.38;;;23.95;20.44
7768;BME280;3928;42.626;23.382;2023-03-13T12:25:12;94413.03;;;24.45;20.05
7768;BME280;3928;42.626;23.382;2023-03-13T12:27:45;94399.09;;;24.94;19.88
7768;BME280;3928;42.626;23.382;2023-03-13T12:30:22;94385.91;;;25.20;19.44
7768;BME280;3928;42.626;23.382;2023-03-13T12:32:56;94400.28;;;25.51;19.08
7768;BME280;3928;42.626;23.382;2023-03-13T12:35:28;94396.16;;;25.59;18.82
7768;BME280;3928;42.626;23.382;2023-03-13T12:38:02;94397.78;;;25.49;18.52
7768;BME280;3928;42.626;23.382;2023-03-13T12:40:36;94402.75;;;25.41;19.20
7768;BME280;3928;42.626;23.382;2023-03-13T12:43:10;94399.72;;;25.58;19.18
7768;BME280;3928;42.626;23.382;2023-03-13T12:45:50;94401.84;;;25.77;18.50
7768;BME280;3928;42.626;23.382;2023-03-13T12:48:37;94399.09;;;25.07;19.12
7768;BME280;3928;42.626;23.382;2023-03-13T12:51:22;94406.44;;;25.39;19.08
7768;BME280;3928;42.626;23.382;2023-03-13T12:54:17;94401.72;;;25.79;18.46
7768;BME280;3928;42.626;23.382;2023-03-13T12:57:08;94400.50;;;26.07;17.94
7768;BME280;3928;42.626;23.382;2023-03-13T12:59:40;94410.06;;;26.08;18.12
7768;BME280;3928;42.626;23.382;2023-03-13T13:02:14;94404.34;;;26.25;18.19
7768;BME280;3928;42.626;23.382;2023-03-13T13:04:44;94398.91;;;26.39;17.53
7768;BME280;3928;42.626;23.382;2023-03-13T13:07:21;94402.63;;;26.48;17.27
7768;BME280;3928;42.626;23.382;2023-03-13T13:10:20;94402.50;;;26.72;17.61
7768;BME280;3928;42.626;23.382;2023-03-13T13:13:17;94403.81;;;27.00;17.68
7768;BME280;3928;42.626;23.382;2023-03-13T13:15:45;94407.31;;;27.12;18.09
7768;BME280;3928;42.626;23.382;2023-03-13T13:18:15;94404.66;;;27.00;17.53
7768;BME280;3928;42.626;23.382;2023-03-13T13:21:20;94402.03;;;26.78;17.66
7768;BME280;3928;42.626;23.382;2023-03-13T13:23:48;94382.91;;;26.65;18.10
7768;BME280;3928;42.626;23.382;2023-03-13T13:26:48;94397.94;;;26.96;18.01
7768;BME280;3928;42.626;23.382;2023-03-13T13:32:45;94393.16;;;27.24;17.42
7768;BME280;3928;42.626;23.382;2023-03-13T13:35:27;94386.13;;;26.68;17.71
7768;BME280;3928;42.626;23.382;2023-03-13T13:38:28;94385.03;;;26.60;17.51